Ekalaka, Montana
Current Conditions -  °F | °C
As of 8:51 PM on Friday 19 Dec 2014 (Local Time) from KBHK Reporting Station
Clear Clear  
Wind Chill: 24°   Ceiling: Unl
Heat Index: 24°   Visibility: 10mi
Dew Point: 20°   Wind: 0mph
Humidity: 84%   Direction: NA
Pressure: 29.89"   Gusts: NA
Location:  45.89°N, 104.55°W
Report Text: KBHK 200351Z AUTO 00000KT 10SM CLR M04/M07 A2989 RMK AO2 SLP155 T10441067
Loading
Personal Weather Stations






























Interactive Weather Map New forecast layout! Learn more

10-Day Weather Forecast

Advertisements
Track Severe Weather on mobile